Time;durP1;ratioP1;P1;durP2;ratioP2;P2;SDS_P1;SDS_P2;PMS_P1;PMS_P2;Temp;Humidity;BMP_temperature;BMP_pressure;BME280_temperature;BME280_humidity;BME280_pressure;Samples;Min_cycle;Max_cycle;Signal;HPM_P1;HPM_P2
2021/09/05 00:00:59;;;;;;;16.20;13.50;;;13.20;99.90;;;;;;5031541;28;20626;-79
2021/09/05 00:03:26;;;;;;;15.00;13.60;;;13.20;99.90;;;;;;5013419;28;20194;-78
2021/09/05 00:05:54;;;;;;;16.53;12.97;;;13.20;99.90;;;;;;5013851;28;20222;-80
2021/09/05 00:08:21;;;;;;;14.33;12.03;;;13.20;99.90;;;;;;5031581;28;20240;-80
2021/09/05 00:10:48;;;;;;;12.77;11.43;;;13.20;99.90;;;;;;5013978;28;20577;-79
2021/09/05 00:13:15;;;;;;;12.97;11.53;;;13.20;99.90;;;;;;5029345;28;20244;-79
2021/09/05 00:15:41;;;;;;;15.47;14.00;;;13.10;99.90;;;;;;5008774;28;20222;-80
2021/09/05 00:18:08;;;;;;;14.23;12.53;;;13.20;99.90;;;;;;5011596;28;20199;-79
2021/09/05 00:20:35;;;;;;;13.87;12.00;;;13.10;99.90;;;;;;5013714;28;20252;-79
2021/09/05 00:23:04;;;;;;;15.40;14.00;;;13.10;99.90;;;;;;5007510;28;20261;-79
2021/09/05 00:25:31;;;;;;;15.80;14.43;;;13.10;99.90;;;;;;5013562;28;20221;-79
2021/09/05 00:27:58;;;;;;;16.80;15.23;;;13.00;99.90;;;;;;5032253;28;20209;-79
2021/09/05 00:30:25;;;;;;;16.53;15.03;;;13.00;99.90;;;;;;5017450;28;20674;-79
2021/09/05 00:32:52;;;;;;;18.30;16.60;;;13.00;99.90;;;;;;5035333;28;20196;-78
2021/09/05 00:35:19;;;;;;;17.50;15.83;;;13.00;99.90;;;;;;5016949;28;20248;-78
2021/09/05 00:37:45;;;;;;;16.90;15.30;;;13.00;99.90;;;;;;5034312;28;20779;-81
2021/09/05 00:40:14;;;;;;;16.70;15.10;;;13.00;99.90;;;;;;5016931;28;20208;-79
2021/09/05 00:42:41;;;;;;;16.30;14.77;;;13.00;99.90;;;;;;5017212;28;20200;-79
2021/09/05 00:45:09;;;;;;;17.60;15.83;;;12.90;99.90;;;;;;5011222;28;20219;-79
2021/09/05 00:47:36;;;;;;;17.50;15.73;;;12.90;99.90;;;;;;5016719;28;20202;-79
2021/09/05 00:50:04;;;;;;;17.17;15.47;;;12.90;99.90;;;;;;5007086;28;20207;-78
2021/09/05 00:52:31;;;;;;;15.83;14.43;;;12.80;99.90;;;;;;5014120;28;20213;-80
2021/09/05 00:54:57;;;;;;;16.17;14.63;;;12.80;99.90;;;;;;5012810;28;20774;-79
2021/09/05 00:57:26;;;;;;;16.97;15.43;;;12.80;99.90;;;;;;5016181;28;20204;-79
2021/09/05 00:59:53;;;;;;;16.83;15.20;;;12.90;99.90;;;;;;5029736;28;20194;-79
2021/09/05 01:02:20;;;;;;;15.93;14.37;;;12.90;99.90;;;;;;5034624;28;20187;-78
2021/09/05 01:04:47;;;;;;;15.33;14.00;;;12.90;99.90;;;;;;5016571;28;20206;-78
2021/09/05 01:07:15;;;;;;;15.17;13.87;;;12.80;99.90;;;;;;5010966;28;20252;-79
2021/09/05 01:09:42;;;;;;;15.53;14.23;;;12.80;99.90;;;;;;5034021;28;20278;-79
2021/09/05 01:12:11;;;;;;;15.47;14.07;;;12.80;99.90;;;;;;5016432;28;20194;-78
2021/09/05 01:14:40;;;;;;;15.67;14.27;;;12.80;99.90;;;;;;5016802;28;20197;-78
2021/09/05 01:17:11;;;;;;;15.00;13.57;;;12.70;99.90;;;;;;5012409;28;20308;-78
2021/09/05 01:19:50;;;;;;;15.27;13.97;;;12.80;99.90;;;;;;5030764;28;20213;-79
2021/09/05 01:22:55;;;;;;;17.07;14.60;;;12.80;99.90;;;;;;5033862;28;20197;-79
2021/09/05 01:25:45;;;;;;;16.23;14.67;;;12.70;99.90;;;;;;5016428;28;20706;-79
2021/09/05 01:28:46;;;;;;;15.20;13.90;;;12.70;99.90;;;;;;5033122;28;20589;-79
2021/09/05 01:31:38;;;;;;;15.37;14.00;;;12.70;99.90;;;;;;5032113;28;20252;-78
2021/09/05 01:34:30;;;;;;;16.33;14.93;;;12.70;99.90;;;;;;5031088;28;20201;-79
2021/09/05 01:37:16;;;;;;;16.37;14.77;;;12.70;99.90;;;;;;5029701;28;20316;-78
2021/09/05 01:40:02;;;;;;;16.83;15.30;;;12.70;99.90;;;;;;5027607;28;20718;-79
2021/09/05 01:42:58;;;;;;;16.80;15.33;;;12.70;99.90;;;;;;5015837;28;20207;-79
2021/09/05 01:46:02;;;;;;;16.77;15.17;;;12.60;99.90;;;;;;5009368;28;20236;-79
2021/09/05 01:49:05;;;;;;;17.17;15.57;;;12.50;99.90;;;;;;5026595;28;20576;-79
2021/09/05 01:52:01;;;;;;;16.63;15.13;;;12.50;99.90;;;;;;4971206;28;20207;-78
2021/09/05 01:55:02;;;;;;;16.43;14.93;;;12.50;99.90;;;;;;5007217;28;20194;-79
2021/09/05 01:57:58;;;;;;;16.20;14.50;;;12.50;99.90;;;;;;5026253;28;20328;-79
2021/09/05 02:00:54;;;;;;;16.63;15.13;;;12.50;99.90;;;;;;4971581;28;20259;-80
2021/09/05 02:03:36;;;;;;;16.60;15.10;;;12.50;99.90;;;;;;5013493;28;20205;-79
2021/09/05 02:06:18;;;;;;;16.90;15.37;;;12.50;99.90;;;;;;5015380;28;20252;-78
2021/09/05 02:09:10;;;;;;;16.50;15.03;;;12.50;99.90;;;;;;5009933;28;20250;-78
2021/09/05 02:11:56;;;;;;;16.73;15.23;;;12.50;99.90;;;;;;5015792;28;20202;-78
2021/09/05 02:14:47;;;;;;;17.13;15.63;;;12.60;99.90;;;;;;5015236;28;20201;-80
2021/09/05 02:17:30;;;;;;;17.43;15.83;;;12.50;99.90;;;;;;5032953;28;20193;-78
2021/09/05 02:20:16;;;;;;;17.20;15.57;;;12.50;99.90;;;;;;5010421;28;20201;-79
2021/09/05 02:23:01;;;;;;;15.50;14.20;;;12.50;99.90;;;;;;5026821;28;20247;-78
2021/09/05 02:25:48;;;;;;;15.47;14.07;;;12.50;99.90;;;;;;5015323;28;20221;-79
2021/09/05 02:28:31;;;;;;;15.00;13.70;;;12.50;99.90;;;;;;5014818;28;20205;-79
2021/09/05 02:31:16;;;;;;;15.60;14.20;;;12.40;99.90;;;;;;5028850;28;20200;-78
2021/09/05 02:34:02;;;;;;;17.13;15.50;;;12.40;99.90;;;;;;5026795;28;20208;-78
2021/09/05 02:36:54;;;;;;;15.63;14.13;;;12.40;99.90;;;;;;5014692;28;20225;-78
2021/09/05 02:39:41;;;;;;;16.73;15.13;;;12.40;99.90;;;;;;5001444;28;20700;-79
2021/09/05 02:42:34;;;;;;;14.90;13.60;;;12.40;99.90;;;;;;5011402;28;20210;-79
2021/09/05 02:45:29;;;;;;;15.10;13.73;;;12.40;99.90;;;;;;5011737;28;20260;-78
2021/09/05 02:48:25;;;;;;;16.03;14.63;;;12.30;99.90;;;;;;5028523;28;20690;-79
2021/09/05 02:51:21;;;;;;;15.50;14.13;;;12.30;99.90;;;;;;5028302;28;20687;-79
2021/09/05 02:54:08;;;;;;;16.23;14.63;;;12.30;99.90;;;;;;5027202;28;20210;-83
2021/09/05 02:57:07;;;;;;;15.93;14.53;;;12.30;99.90;;;;;;5025514;28;20240;-84
2021/09/05 02:59:57;;;;;;;15.63;14.27;;;12.30;99.90;;;;;;4973306;28;20218;-82
2021/09/05 03:02:44;;;;;;;16.27;14.73;;;12.30;99.90;;;;;;4993800;28;20216;-82
2021/09/05 03:05:29;;;;;;;17.07;15.27;;;12.30;99.90;;;;;;5026354;28;20255;-83
2021/09/05 03:08:16;;;;;;;16.37;14.93;;;12.20;99.90;;;;;;5031740;28;20200;-82
2021/09/05 03:10:55;;;;;;;15.97;14.57;;;12.20;99.90;;;;;;5004167;28;20199;-82
2021/09/05 03:14:00;;;;;;;13.97;12.77;;;12.20;99.90;;;;;;4937223;29;20572;-84
2021/09/05 03:17:05;;;;;;;15.00;13.70;;;12.20;99.90;;;;;;4935820;29;20224;-83
2021/09/05 03:19:51;;;;;;;15.30;13.93;;;12.20;99.90;;;;;;5016274;28;20232;-84
2021/09/05 03:22:39;;;;;;;16.27;14.97;;;12.10;99.90;;;;;;5012939;28;20246;-83
2021/09/05 03:25:36;;;;;;;15.93;14.53;;;12.20;99.90;;;;;;5016251;28;20300;-82
2021/09/05 03:28:33;;;;;;;15.87;14.37;;;12.10;99.90;;;;;;5033204;28;20293;-82
2021/09/05 03:31:20;;;;;;;16.67;15.17;;;12.10;99.90;;;;;;5010422;28;20295;-83
2021/09/05 03:34:22;;;;;;;16.23;14.67;;;12.10;99.90;;;;;;5014862;28;20208;-83
2021/09/05 03:37:08;;;;;;;14.97;13.67;;;12.10;99.90;;;;;;5020375;28;20252;-83
2021/09/05 03:40:15;;;;;;;15.50;14.20;;;12.00;99.90;;;;;;5023810;28;20327;-83
2021/09/05 03:43:04;;;;;;;15.87;14.37;;;12.00;99.90;;;;;;5026414;28;20199;-82
2021/09/05 03:46:11;;;;;;;15.37;14.00;;;12.00;99.90;;;;;;4964150;28;20632;-82
2021/09/05 03:49:04;;;;;;;15.60;14.10;;;12.00;99.90;;;;;;4905233;29;20269;-82
2021/09/05 03:51:31;;;;;;;14.97;13.67;;;12.00;99.90;;;;;;4935939;28;20211;-81
2021/09/05 03:53:58;;;;;;;15.33;13.83;;;12.00;99.90;;;;;;4976002;28;20198;-82
2021/09/05 03:56:26;;;;;;;15.03;13.73;;;12.00;99.90;;;;;;4980981;28;20242;-83
2021/09/05 03:58:58;;;;;;;14.97;13.70;;;12.00;99.90;;;;;;4977187;28;20197;-83
2021/09/05 04:01:29;;;;;;;16.20;14.77;;;12.00;99.90;;;;;;4955990;28;20283;-82
2021/09/05 04:04:09;;;;;;;15.50;14.00;;;12.00;99.90;;;;;;4975001;28;20198;-82
2021/09/05 04:06:35;;;;;;;14.77;13.47;;;11.90;99.90;;;;;;4960203;28;20731;-83
2021/09/05 04:09:09;;;;;;;15.30;14.07;;;11.90;99.90;;;;;;4956432;28;20210;-83
2021/09/05 04:11:37;;;;;;;15.13;13.83;;;11.90;99.90;;;;;;4981081;28;20209;-82
2021/09/05 04:14:04;;;;;;;15.27;13.87;;;11.90;99.90;;;;;;4976642;28;20207;-83
2021/09/05 04:16:32;;;;;;;15.13;13.73;;;11.80;99.90;;;;;;4962101;28;20229;-81
2021/09/05 04:18:59;;;;;;;15.47;14.17;;;11.80;99.90;;;;;;4984900;28;20782;-82
2021/09/05 04:21:26;;;;;;;15.93;14.47;;;11.70;99.90;;;;;;5016849;28;20192;-78
2021/09/05 04:23:53;;;;;;;14.80;13.50;;;11.80;99.90;;;;;;5016241;28;20196;-81
2021/09/05 04:26:20;;;;;;;15.50;14.27;;;11.80;99.90;;;;;;5020454;28;20234;-82
2021/09/05 04:28:47;;;;;;;15.97;14.57;;;11.70;99.90;;;;;;5015581;28;20195;-82
2021/09/05 04:31:13;;;;;;;15.23;14.03;;;11.70;99.90;;;;;;5016891;28;20200;-82
2021/09/05 04:33:41;;;;;;;16.53;15.03;;;11.70;99.90;;;;;;5015889;28;20196;-78
2021/09/05 04:36:08;;;;;;;14.57;13.27;;;11.60;99.90;;;;;;5026834;28;20422;-84
2021/09/05 04:38:35;;;;;;;16.67;15.20;;;11.60;99.90;;;;;;5004567;28;20263;-82
2021/09/05 04:41:02;;;;;;;15.90;14.57;;;11.60;99.90;;;;;;5016867;28;20207;-81
2021/09/05 04:43:29;;;;;;;15.50;14.23;;;11.60;99.90;;;;;;5016960;28;20262;-84
2021/09/05 04:45:56;;;;;;;16.53;15.13;;;11.60;99.90;;;;;;5016742;28;20224;-82
2021/09/05 04:48:23;;;;;;;17.00;15.40;;;11.60;99.90;;;;;;5015364;28;20730;-82
2021/09/05 04:50:51;;;;;;;15.73;14.43;;;11.60;99.90;;;;;;5003449;28;20203;-83
2021/09/05 04:53:18;;;;;;;17.17;15.73;;;11.60;99.90;;;;;;5035121;28;20189;-82
2021/09/05 04:55:45;;;;;;;17.63;16.13;;;11.60;99.90;;;;;;5016601;28;20224;-82
2021/09/05 04:58:12;;;;;;;18.57;16.97;;;11.70;99.90;;;;;;5009653;28;20216;-82
2021/09/05 05:00:39;;;;;;;17.60;16.03;;;11.60;99.90;;;;;;5035677;28;20245;-82
2021/09/05 05:03:06;;;;;;;16.83;15.33;;;11.60;99.90;;;;;;5011471;28;20330;-82
2021/09/05 05:05:32;;;;;;;16.70;15.30;;;11.60;99.90;;;;;;5033694;28;20223;-82
2021/09/05 05:08:00;;;;;;;17.27;15.57;;;11.60;99.90;;;;;;5033865;28;20594;-83
2021/09/05 05:10:27;;;;;;;15.77;14.43;;;11.60;99.90;;;;;;5019221;28;20203;-84
2021/09/05 05:12:54;;;;;;;16.63;15.17;;;11.70;99.90;;;;;;5037023;28;20653;-83
2021/09/05 05:15:21;;;;;;;17.07;15.50;;;11.70;99.90;;;;;;5019758;28;20708;-83
2021/09/05 05:17:48;;;;;;;17.63;15.97;;;11.70;99.90;;;;;;5018455;28;20627;-85
2021/09/05 05:20:15;;;;;;;16.90;15.40;;;11.80;99.90;;;;;;5010832;28;20205;-82
2021/09/05 05:22:43;;;;;;;17.37;15.77;;;11.80;99.90;;;;;;5015287;28;20298;-83
2021/09/05 05:25:12;;;;;;;15.93;14.63;;;11.90;99.90;;;;;;5006349;28;20205;-83
2021/09/05 05:27:39;;;;;;;16.63;15.23;;;12.00;99.90;;;;;;5013730;28;20206;-84
2021/09/05 05:30:06;;;;;;;16.00;14.70;;;12.00;99.90;;;;;;5032879;28;20196;-83
2021/09/05 05:32:33;;;;;;;14.80;13.60;;;12.10;99.90;;;;;;5012490;28;20200;-81
2021/09/05 05:35:00;;;;;;;16.67;15.17;;;12.20;99.90;;;;;;5013001;28;20211;-80
2021/09/05 05:37:27;;;;;;;16.60;15.20;;;12.40;99.90;;;;;;5036638;23;20229;-76
2021/09/05 05:39:53;;;;;;;16.27;14.87;;;12.50;99.90;;;;;;5027919;28;20418;-81
2021/09/05 05:42:22;;;;;;;15.90;14.40;;;12.70;99.90;;;;;;5006510;28;20260;-79
2021/09/05 05:44:49;;;;;;;16.67;15.37;;;12.80;99.90;;;;;;5023032;28;20194;-81
2021/09/05 05:47:16;;;;;;;16.00;14.73;;;13.00;99.90;;;;;;5010222;28;20222;-79
2021/09/05 05:49:46;;;;;;;14.70;13.53;;;13.20;99.90;;;;;;5010079;28;20198;-79
2021/09/05 05:52:13;;;;;;;14.23;13.07;;;13.30;99.90;;;;;;5017734;28;20199;-77
2021/09/05 05:54:41;;;;;;;15.17;13.87;;;13.40;99.90;;;;;;5014095;28;20202;-77
2021/09/05 05:57:08;;;;;;;14.70;13.50;;;13.50;99.90;;;;;;5013615;28;20211;-79
2021/09/05 05:59:36;;;;;;;13.83;12.63;;;13.60;99.90;;;;;;5014102;28;20201;-77
2021/09/05 06:02:03;;;;;;;15.27;13.87;;;13.70;99.90;;;;;;5018495;28;20633;-80
2021/09/05 06:04:30;;;;;;;14.60;13.40;;;13.70;99.90;;;;;;5025376;28;20199;-78
2021/09/05 06:06:57;;;;;;;14.13;12.83;;;13.80;99.90;;;;;;5022253;28;20329;-78
2021/09/05 06:09:24;;;;;;;14.00;12.73;;;13.90;99.90;;;;;;5015867;28;20219;-77
2021/09/05 06:11:50;;;;;;;13.53;12.33;;;14.00;99.90;;;;;;5008003;28;20204;-78
2021/09/05 06:14:17;;;;;;;13.57;12.37;;;14.10;99.90;;;;;;5016672;28;20250;-78
2021/09/05 06:16:45;;;;;;;10.97;9.87;;;14.20;99.90;;;;;;5015168;28;20212;-78
2021/09/05 06:19:12;;;;;;;11.37;10.27;;;14.30;99.90;;;;;;5004904;28;20199;-78
2021/09/05 06:21:39;;;;;;;9.53;8.47;;;14.40;99.90;;;;;;5009112;28;20196;-78
2021/09/05 06:24:06;;;;;;;11.73;10.63;;;14.50;99.90;;;;;;5003756;28;20197;-78
2021/09/05 06:26:33;;;;;;;9.90;9.00;;;14.60;99.90;;;;;;5019537;28;20221;-80
2021/09/05 06:28:59;;;;;;;10.43;9.43;;;14.70;99.90;;;;;;5025594;28;20569;-78
2021/09/05 06:31:26;;;;;;;10.07;9.00;;;14.80;99.90;;;;;;5020676;28;20204;-79
2021/09/05 06:33:54;;;;;;;8.67;7.60;;;14.80;99.90;;;;;;5020948;28;20200;-77
2021/09/05 06:36:21;;;;;;;8.37;7.47;;;14.90;99.90;;;;;;5018195;28;20232;-77
2021/09/05 06:38:48;;;;;;;7.77;6.60;;;15.00;99.90;;;;;;5013910;28;20724;-77
2021/09/05 06:41:15;;;;;;;7.00;6.07;;;15.00;99.90;;;;;;5021038;28;20655;-78
2021/09/05 06:43:42;;;;;;;8.07;7.23;;;15.10;99.90;;;;;;5024026;28;20197;-78
2021/09/05 06:46:08;;;;;;;9.20;6.97;;;15.20;99.90;;;;;;5006819;28;20225;-79
2021/09/05 06:48:36;;;;;;;8.70;7.60;;;15.30;99.90;;;;;;5010013;28;20216;-80
2021/09/05 06:51:05;;;;;;;8.53;7.23;;;15.40;99.90;;;;;;5014632;28;20255;-78
2021/09/05 06:53:31;;;;;;;8.77;7.73;;;15.50;99.90;;;;;;5010956;28;20205;-80
2021/09/05 06:55:58;;;;;;;8.93;7.10;;;15.50;99.90;;;;;;5014549;28;20222;-80
2021/09/05 06:58:27;;;;;;;9.10;7.33;;;15.60;99.90;;;;;;5015375;28;20208;-78
2021/09/05 07:00:54;;;;;;;7.53;6.80;;;15.70;99.90;;;;;;5015145;28;20766;-79
2021/09/05 07:03:21;;;;;;;9.73;8.83;;;15.80;99.90;;;;;;5014193;28;20268;-79
2021/09/05 07:05:48;;;;;;;9.57;7.47;;;15.90;99.90;;;;;;5008765;28;20224;-78
2021/09/05 07:08:16;;;;;;;9.00;7.57;;;16.00;99.90;;;;;;5003730;28;20249;-78
2021/09/05 07:10:43;;;;;;;6.60;5.97;;;16.10;99.90;;;;;;5013953;28;20526;-79
2021/09/05 07:13:10;;;;;;;7.90;6.67;;;16.30;99.90;;;;;;5006968;28;20264;-77
2021/09/05 07:15:39;;;;;;;7.80;6.97;;;16.50;99.90;;;;;;5013046;28;20230;-77
2021/09/05 07:18:06;;;;;;;8.50;7.70;;;16.70;99.90;;;;;;5014430;28;20216;-79
2021/09/05 07:20:33;;;;;;;10.10;9.20;;;17.10;99.90;;;;;;5011170;28;20349;-77
2021/09/05 07:23:00;;;;;;;10.30;9.40;;;17.30;99.90;;;;;;5013807;28;20914;-78
2021/09/05 07:25:28;;;;;;;8.27;7.40;;;17.70;99.90;;;;;;5012152;28;20253;-77
2021/09/05 07:27:55;;;;;;;10.33;9.43;;;18.00;99.90;;;;;;5010601;28;20227;-77
2021/09/05 07:30:22;;;;;;;11.00;9.93;;;18.40;99.90;;;;;;5013747;28;20560;-77
2021/09/05 07:32:49;;;;;;;11.40;10.40;;;18.70;99.90;;;;;;5011267;28;20232;-77
2021/09/05 07:35:16;;;;;;;11.20;10.20;;;19.10;99.90;;;;;;5013240;28;20201;-79
2021/09/05 07:37:46;;;;;;;7.87;6.93;;;19.40;99.90;;;;;;5018179;28;20224;-78
2021/09/05 07:40:14;;;;;;;13.10;12.07;;;19.70;99.90;;;;;;5013656;28;20231;-78
2021/09/05 07:42:43;;;;;;;12.70;11.70;;;20.10;99.90;;;;;;5019813;28;20226;-79
2021/09/05 07:45:11;;;;;;;14.30;13.00;;;20.50;99.90;;;;;;5019782;28;20205;-79
2021/09/05 07:47:38;;;;;;;12.87;11.77;;;20.70;99.90;;;;;;5016603;28;20229;-79
2021/09/05 07:50:06;;;;;;;13.13;12.03;;;20.90;99.90;;;;;;5021187;28;20200;-79
2021/09/05 07:52:32;;;;;;;11.90;10.90;;;21.10;99.90;;;;;;5013650;28;20203;-79
2021/09/05 07:54:59;;;;;;;13.27;12.00;;;21.20;99.90;;;;;;5009494;28;20207;-79
2021/09/05 07:57:26;;;;;;;13.23;12.23;;;21.40;99.90;;;;;;5012411;28;20220;-80
2021/09/05 07:59:54;;;;;;;12.20;11.20;;;21.60;99.90;;;;;;5008651;28;20668;-80
2021/09/05 08:02:21;;;;;;;13.70;12.60;;;21.80;99.90;;;;;;5013917;28;20208;-80
2021/09/05 08:04:48;;;;;;;12.97;11.93;;;21.90;99.90;;;;;;5019322;28;20193;-80
2021/09/05 08:07:15;;;;;;;13.73;12.53;;;22.10;99.90;;;;;;5017574;28;20247;-80
2021/09/05 08:09:41;;;;;;;12.70;11.60;;;22.20;99.90;;;;;;5017253;28;20197;-80
2021/09/05 08:12:08;;;;;;;11.50;10.60;;;22.30;99.90;;;;;;5017294;28;20204;-80
2021/09/05 08:14:36;;;;;;;11.67;10.67;;;22.70;99.90;;;;;;5016452;28;20258;-80
2021/09/05 08:17:05;;;;;;;12.57;11.37;;;22.90;99.90;;;;;;5018609;28;20709;-80
2021/09/05 08:19:32;;;;;;;11.33;10.43;;;22.80;99.90;;;;;;5010060;28;20252;-80
2021/09/05 08:21:58;;;;;;;12.70;11.60;;;23.00;99.90;;;;;;5009161;28;20205;-80
2021/09/05 08:24:25;;;;;;;11.77;10.83;;;23.10;99.90;;;;;;5009469;28;20197;-80
2021/09/05 08:26:52;;;;;;;12.40;11.40;;;23.30;99.90;;;;;;5012976;28;20221;-80
2021/09/05 08:29:19;;;;;;;12.27;11.17;;;23.50;99.90;;;;;;5016929;28;20646;-80
2021/09/05 08:31:46;;;;;;;12.93;11.63;;;23.70;99.90;;;;;;5017181;28;20677;-81
2021/09/05 08:34:14;;;;;;;12.17;11.10;;;23.50;99.90;;;;;;5018700;28;20196;-80
2021/09/05 08:36:41;;;;;;;11.00;10.10;;;23.60;99.90;;;;;;5007262;28;20228;-80
2021/09/05 08:39:08;;;;;;;12.50;11.50;;;23.40;99.90;;;;;;5007915;28;20208;-81
2021/09/05 08:41:35;;;;;;;11.07;10.17;;;23.60;99.90;;;;;;5011151;28;20238;-80
2021/09/05 08:44:02;;;;;;;11.33;10.33;;;23.80;99.90;;;;;;5016455;28;20250;-80
2021/09/05 08:46:29;;;;;;;8.23;7.27;;;23.90;99.90;;;;;;5013778;28;20224;-79
2021/09/05 08:48:56;;;;;;;11.53;10.50;;;24.20;99.90;;;;;;5015461;28;20209;-80
2021/09/05 08:51:25;;;;;;;13.57;12.47;;;24.60;99.90;;;;;;5019730;28;20208;-80
2021/09/05 08:53:53;;;;;;;12.50;11.40;;;24.90;99.90;;;;;;5013010;28;20203;-80
2021/09/05 08:56:20;;;;;;;9.67;8.87;;;24.70;99.90;;;;;;5017539;28;20212;-80
2021/09/05 08:58:47;;;;;;;9.60;8.70;;;24.80;99.90;;;;;;5015512;28;20196;-80
2021/09/05 09:01:18;;;;;;;11.23;10.33;;;25.00;99.90;;;;;;5018059;28;20189;-80
2021/09/05 09:03:45;;;;;;;8.90;8.00;;;24.90;99.90;;;;;;5017799;28;20223;-79
2021/09/05 09:06:18;;;;;;;10.40;9.50;;;24.90;99.90;;;;;;5009521;28;20640;-80
2021/09/05 09:08:55;;;;;;;8.10;7.27;;;24.90;99.90;;;;;;5008412;28;20208;-79
2021/09/05 09:11:22;;;;;;;7.67;6.93;;;24.90;99.90;;;;;;5013205;28;20259;-80
2021/09/05 09:13:55;;;;;;;6.80;6.10;;;25.20;99.90;;;;;;5018378;28;20243;-80
2021/09/05 09:16:23;;;;;;;8.57;6.43;;;25.50;99.90;;;;;;5010433;28;20304;-80
2021/09/05 09:18:53;;;;;;;9.40;8.50;;;25.70;99.90;;;;;;5016560;28;20210;-80
2021/09/05 09:21:20;;;;;;;9.93;9.03;;;25.90;99.90;;;;;;5010746;28;20207;-81
2021/09/05 09:23:50;;;;;;;9.10;8.37;;;25.90;99.90;;;;;;5011352;28;20246;-80
2021/09/05 09:26:17;;;;;;;9.27;5.73;;;25.90;99.90;;;;;;5013694;28;20239;-81
2021/09/05 09:28:46;;;;;;;6.93;6.23;;;25.80;99.90;;;;;;5015786;28;20228;-79
2021/09/05 09:31:15;;;;;;;8.00;7.20;;;26.10;99.90;;;;;;5016588;28;20268;-80
2021/09/05 09:33:43;;;;;;;8.43;7.73;;;26.20;99.90;;;;;;5019568;28;20203;-81
2021/09/05 09:36:12;;;;;;;11.33;10.33;;;26.30;99.90;;;;;;5022474;28;20224;-80
2021/09/05 09:38:38;;;;;;;8.77;7.87;;;26.30;99.90;;;;;;5023293;28;20192;-81
2021/09/05 09:41:09;;;;;;;10.00;9.20;;;26.00;99.90;;;;;;5023361;28;20210;-81
2021/09/05 09:43:49;;;;;;;11.20;10.20;;;26.20;99.90;;;;;;5040718;28;20196;-81
2021/09/05 09:46:18;;;;;;;11.00;10.10;;;26.20;99.90;;;;;;5040107;28;20246;-80
2021/09/05 09:48:49;;;;;;;10.63;9.73;;;26.40;99.90;;;;;;5029590;28;20243;-80
2021/09/05 09:51:17;;;;;;;11.20;10.07;;;26.30;99.90;;;;;;5039918;28;20215;-80
2021/09/05 09:53:45;;;;;;;10.20;9.40;;;26.00;99.90;;;;;;5032210;28;20202;-80
2021/09/05 09:56:16;;;;;;;10.80;9.90;;;26.00;99.90;;;;;;5020404;28;20666;-81
2021/09/05 09:58:44;;;;;;;11.27;10.27;;;26.10;99.90;;;;;;5037134;28;20219;-80
2021/09/05 10:01:14;;;;;;;10.43;9.63;;;26.10;99.90;;;;;;5030124;28;20230;-80
2021/09/05 10:03:43;;;;;;;10.73;9.83;;;26.00;99.90;;;;;;5017105;28;20236;-77
2021/09/05 10:06:10;;;;;;;11.07;10.17;;;25.90;99.90;;;;;;5018897;28;20274;-77
2021/09/05 10:08:40;;;;;;;10.37;9.53;;;25.70;99.90;;;;;;5034369;28;20282;-81
2021/09/05 10:11:08;;;;;;;11.17;10.23;;;25.60;99.90;;;;;;5019602;28;20200;-79
2021/09/05 10:13:38;;;;;;;11.13;10.17;;;25.40;99.90;;;;;;5016866;28;20204;-79
2021/09/05 10:16:06;;;;;;;11.07;10.07;;;25.40;99.90;;;;;;5017855;28;20226;-81
2021/09/05 10:18:34;;;;;;;10.93;9.97;;;25.50;99.90;;;;;;5022103;28;20192;-80
2021/09/05 10:21:02;;;;;;;10.37;9.53;;;25.30;99.90;;;;;;5032219;28;20192;-79
2021/09/05 10:23:31;;;;;;;10.67;9.77;;;25.40;99.90;;;;;;5015931;28;20204;-81
2021/09/05 10:26:05;;;;;;;10.43;9.53;;;25.20;99.90;;;;;;5031229;28;20253;-80
2021/09/05 10:28:39;;;;;;;10.37;9.47;;;25.10;99.90;;;;;;5036599;28;20727;-80
2021/09/05 10:31:06;;;;;;;10.20;9.40;;;25.30;99.90;;;;;;5029832;28;20200;-79
2021/09/05 10:33:35;;;;;;;9.57;8.77;;;25.40;99.90;;;;;;5029986;28;20194;-80
2021/09/05 10:36:11;;;;;;;10.23;9.43;;;25.20;99.90;;;;;;5015191;28;20241;-80
2021/09/05 10:38:40;;;;;;;9.77;8.87;;;25.30;99.90;;;;;;5030280;28;20237;-80
2021/09/05 10:41:13;;;;;;;9.83;9.03;;;25.30;99.90;;;;;;5030566;28;20200;-79
2021/09/05 10:44:11;;;;;;;10.03;9.23;;;25.30;99.90;;;;;;5025149;28;20677;-81
2021/09/05 10:46:46;;;;;;;9.67;8.87;;;25.00;99.90;;;;;;4969697;28;20219;-80
2021/09/05 10:49:13;;;;;;;9.20;8.50;;;25.10;99.90;;;;;;5004519;28;20199;-80
2021/09/05 10:51:46;;;;;;;10.30;9.20;;;25.20;99.90;;;;;;5007805;28;20234;-80
2021/09/05 10:54:21;;;;;;;9.67;8.83;;;25.10;99.90;;;;;;5034495;28;20207;-80
2021/09/05 10:56:48;;;;;;;9.93;9.13;;;24.90;99.90;;;;;;5047498;28;20302;-79
2021/09/05 10:59:19;;;;;;;9.40;8.60;;;24.90;99.90;;;;;;5010304;28;20195;-80
2021/09/05 11:01:58;;;;;;;9.87;9.07;;;24.90;99.90;;;;;;5011180;28;20195;-80
2021/09/05 11:04:26;;;;;;;9.97;9.23;;;24.90;99.90;;;;;;5023317;28;20198;-80
2021/09/05 11:06:56;;;;;;;9.43;8.70;;;24.90;99.90;;;;;;5008815;28;20223;-80
2021/09/05 11:09:49;;;;;;;9.83;9.03;;;24.90;99.90;;;;;;5026997;28;20214;-80
2021/09/05 11:12:44;;;;;;;9.70;8.90;;;25.00;99.90;;;;;;5024896;28;20217;-81
2021/09/05 11:15:21;;;;;;;8.87;8.07;;;24.80;99.90;;;;;;5029071;28;20192;-81
2021/09/05 11:17:57;;;;;;;9.43;8.63;;;24.70;99.90;;;;;;5017320;28;20207;-80
2021/09/05 11:20:26;;;;;;;9.37;8.43;;;24.60;99.90;;;;;;5028920;28;20275;-80
2021/09/05 11:22:58;;;;;;;9.50;8.70;;;24.70;99.90;;;;;;5028252;28;20706;-80
2021/09/05 11:25:28;;;;;;;9.60;8.80;;;24.50;99.90;;;;;;5027222;28;20192;-80
2021/09/05 11:28:06;;;;;;;9.80;8.90;;;24.50;99.90;;;;;;5020999;28;20212;-80
2021/09/05 11:30:37;;;;;;;9.30;8.60;;;24.50;99.90;;;;;;5023007;28;20208;-80
2021/09/05 11:33:09;;;;;;;9.60;8.80;;;24.60;99.90;;;;;;5016442;28;20236;-81
2021/09/05 11:35:42;;;;;;;9.33;8.63;;;24.60;99.90;;;;;;5041754;28;20187;-80
2021/09/05 11:38:12;;;;;;;9.30;8.53;;;24.50;99.90;;;;;;5040997;28;20718;-79
2021/09/05 11:40:48;;;;;;;9.00;8.30;;;24.40;99.90;;;;;;5024785;28;20196;-80
2021/09/05 11:43:27;;;;;;;9.80;8.90;;;24.40;99.90;;;;;;5036805;28;20632;-80
2021/09/05 11:45:58;;;;;;;9.20;8.30;;;24.40;99.90;;;;;;5030468;28;20271;-79
2021/09/05 11:48:29;;;;;;;9.20;8.40;;;24.30;99.90;;;;;;5019998;28;20591;-80
2021/09/05 11:51:02;;;;;;;8.83;8.13;;;24.40;99.90;;;;;;5018433;28;20692;-80
2021/09/05 11:53:30;;;;;;;9.00;8.17;;;24.30;99.90;;;;;;5018737;28;20676;-79
2021/09/05 11:55:57;;;;;;;8.87;8.07;;;24.30;99.90;;;;;;5032936;28;20221;-80
2021/09/05 11:58:24;;;;;;;9.63;8.83;;;24.30;99.90;;;;;;5030907;28;20652;-79
2021/09/05 12:00:55;;;;;;;9.33;8.53;;;24.40;99.90;;;;;;5010422;28;20676;-78
2021/09/05 12:03:29;;;;;;;10.20;9.33;;;24.50;99.90;;;;;;5016401;28;20453;-80
2021/09/05 12:05:56;;;;;;;8.90;8.20;;;24.40;99.90;;;;;;5027675;28;21357;-79
2021/09/05 12:08:25;;;;;;;9.17;8.47;;;24.40;99.90;;;;;;5033483;28;20290;-78
2021/09/05 12:11:04;;;;;;;9.90;9.03;;;24.50;99.90;;;;;;5017182;28;20581;-80
2021/09/05 12:13:47;;;;;;;9.13;8.43;;;24.50;99.90;;;;;;5016391;28;20231;-80
2021/09/05 12:16:21;;;;;;;9.40;8.60;;;24.70;99.90;;;;;;5005168;28;20767;-79
2021/09/05 12:19:06;;;;;;;9.00;8.30;;;24.80;99.90;;;;;;5013885;28;20613;-80
2021/09/05 12:21:35;;;;;;;9.57;8.80;;;24.80;99.90;;;;;;5015770;28;20251;-80
2021/09/05 12:24:03;;;;;;;9.00;8.30;;;24.70;99.90;;;;;;5012920;28;20192;-80
2021/09/05 12:26:37;;;;;;;9.50;8.77;;;24.70;99.90;;;;;;5015344;28;20270;-80
2021/09/05 12:29:06;;;;;;;9.43;8.67;;;24.70;99.90;;;;;;5030294;28;20310;-81
2021/09/05 12:31:44;;;;;;;9.97;9.17;;;24.70;99.90;;;;;;5035486;28;20214;-80
2021/09/05 12:34:37;;;;;;;9.47;8.77;;;24.90;99.90;;;;;;5014912;28;20206;-80
2021/09/05 12:37:11;;;;;;;9.90;9.00;;;24.90;99.90;;;;;;5025166;28;20251;-80
2021/09/05 12:39:39;;;;;;;9.27;8.57;;;25.00;99.90;;;;;;5035835;28;20183;-81
2021/09/05 12:42:10;;;;;;;10.30;9.40;;;25.00;99.90;;;;;;5021526;28;20668;-80
2021/09/05 12:44:46;;;;;;;9.90;9.10;;;25.00;99.90;;;;;;5025481;28;20191;-79
2021/09/05 12:47:21;;;;;;;9.90;9.20;;;25.00;99.90;;;;;;5020910;28;20766;-80
2021/09/05 12:49:49;;;;;;;10.83;8.70;;;25.20;99.90;;;;;;5010856;28;20526;-81
2021/09/05 12:52:26;;;;;;;8.83;8.13;;;25.20;99.90;;;;;;5023219;28;20202;-80
2021/09/05 12:54:55;;;;;;;10.40;9.17;;;25.20;99.90;;;;;;5019127;28;20219;-82
2021/09/05 12:57:22;;;;;;;9.80;9.00;;;25.30;99.90;;;;;;5028175;28;20239;-81
2021/09/05 12:59:49;;;;;;;9.10;8.40;;;25.30;99.90;;;;;;5006751;28;20247;-81
2021/09/05 13:02:18;;;;;;;9.20;8.40;;;25.40;99.90;;;;;;5036712;28;20242;-78